createdAt,value
2023-05-03T00:07:14.741Z,8.00
2023-05-03T00:15:37.682Z,7.00
2023-05-03T00:24:01.030Z,8.20
2023-05-03T00:32:24.480Z,6.00
2023-05-03T00:40:54.045Z,4.60
2023-05-03T00:49:18.198Z,5.00
2023-05-03T00:57:41.275Z,4.40
2023-05-03T01:06:22.167Z,4.80
2023-05-03T01:15:03.421Z,4.30
2023-05-03T01:23:41.994Z,4.40
2023-05-03T01:32:13.957Z,4.80
2023-05-03T01:40:50.343Z,4.20
2023-05-03T01:49:13.522Z,4.20
2023-05-03T01:57:36.420Z,4.60
2023-05-03T02:05:59.441Z,5.50
2023-05-03T02:14:25.406Z,5.10
2023-05-03T02:22:48.394Z,4.50
2023-05-03T02:31:11.564Z,4.70
2023-05-03T02:39:37.536Z,5.10
2023-05-03T02:48:00.996Z,3.80
2023-05-03T02:56:27.182Z,4.50
2023-05-03T03:04:50.331Z,5.40
2023-05-03T03:13:15.549Z,5.10
2023-05-03T03:21:38.889Z,5.10
2023-05-03T03:30:02.360Z,4.80
2023-05-03T03:38:29.339Z,5.30
2023-05-03T03:46:54.723Z,5.10
2023-05-03T03:55:19.944Z,6.00
2023-05-03T04:03:48.139Z,5.10
2023-05-03T04:12:11.682Z,4.40
2023-05-03T04:20:37.631Z,4.40
2023-05-03T04:29:04.922Z,4.70
2023-05-03T04:37:29.645Z,4.90
2023-05-03T04:45:54.691Z,4.90
2023-05-03T04:54:20.343Z,3.90
2023-05-03T05:02:46.128Z,6.00
2023-05-03T05:11:11.666Z,5.20
2023-05-03T05:19:36.395Z,4.20
2023-05-03T05:28:00.977Z,4.00
2023-05-03T05:36:25.009Z,3.90
2023-05-03T05:44:48.586Z,4.50
2023-05-03T05:53:11.870Z,4.20
2023-05-03T06:01:42.737Z,13.30
2023-05-03T06:10:07.926Z,3.60
2023-05-03T06:18:32.138Z,4.20
2023-05-03T06:26:59.096Z,3.40
2023-05-03T06:35:24.462Z,6.00
2023-05-03T06:43:47.632Z,11.50
2023-05-03T06:52:11.848Z,4.00
2023-05-03T07:00:36.061Z,5.30
2023-05-03T07:08:59.047Z,1.90
2023-05-03T07:17:23.342Z,2.20
2023-05-03T07:25:46.435Z,2.30
2023-05-03T07:34:09.330Z,2.30
2023-05-03T07:42:33.421Z,2.10
2023-05-03T07:50:56.506Z,2.60
2023-05-03T07:59:19.495Z,6.70
2023-05-03T08:07:42.540Z,15.70
2023-05-03T08:16:07.420Z,3.40
2023-05-03T08:24:30.798Z,7.50
2023-05-03T08:32:54.853Z,2.00
2023-05-03T08:41:32.588Z,2.40
2023-05-03T08:49:56.079Z,2.60
2023-05-03T08:58:19.245Z,2.10
2023-05-03T09:06:42.200Z,2.10
2023-05-03T09:15:06.937Z,18.70
2023-05-03T09:23:32.036Z,2.50
2023-05-03T09:32:06.644Z,2.10
2023-05-03T09:40:29.632Z,2.50
2023-05-03T09:48:55.948Z,1.80
2023-05-03T09:57:19.242Z,1.80
2023-05-03T10:05:52.564Z,1.50
2023-05-03T10:14:17.325Z,3.40
2023-05-03T10:23:06.173Z,2.70
2023-05-03T10:31:48.863Z,4.80
2023-05-03T10:40:14.247Z,2.00
2023-05-03T10:48:37.319Z,2.00
2023-05-03T10:57:00.321Z,2.40
2023-05-03T11:05:27.181Z,2.00
2023-05-03T11:13:55.067Z,12.20
2023-05-03T11:22:19.022Z,2.80
2023-05-03T11:30:41.997Z,1.70
2023-05-03T11:39:06.048Z,1.70
2023-05-03T11:47:29.155Z,5.90
2023-05-03T11:55:54.431Z,4.50
2023-05-03T12:04:19.057Z,1.60
2023-05-03T12:13:01.164Z,1.70
2023-05-03T12:21:43.395Z,1.40
2023-05-03T12:30:10.836Z,1.50
2023-05-03T12:38:37.046Z,2.30
2023-05-03T12:47:01.239Z,1.40
2023-05-03T12:55:27.718Z,1.50
2023-05-03T13:04:14.753Z,1.90
2023-05-03T13:12:39.088Z,1.60
2023-05-03T13:21:02.083Z,1.60
2023-05-03T13:29:25.281Z,1.90
2023-05-03T13:37:48.374Z,1.50
2023-05-03T13:46:13.034Z,2.30
2023-05-03T13:54:37.361Z,2.10
2023-05-03T14:03:01.483Z,1.80
2023-05-03T14:11:25.794Z,1.60
2023-05-03T14:19:49.063Z,3.10
2023-05-03T14:28:12.186Z,1.30
2023-05-03T14:36:38.934Z,1.40
2023-05-03T14:45:02.829Z,1.50
2023-05-03T14:53:26.599Z,2.20
2023-05-03T15:01:53.241Z,1.90
2023-05-03T15:10:17.014Z,11.10
2023-05-03T15:18:40.159Z,2.20
2023-05-03T15:27:03.286Z,2.30
2023-05-03T15:35:26.373Z,2.40
2023-05-03T15:43:49.582Z,2.80
2023-05-03T15:52:12.573Z,3.00
2023-05-03T16:00:38.053Z,3.90
2023-05-03T16:09:01.758Z,16.10
2023-05-03T16:17:25.938Z,5.50
2023-05-03T16:25:49.372Z,24.40
2023-05-03T16:34:12.900Z,13.10
2023-05-03T16:42:37.210Z,22.40
2023-05-03T16:51:01.033Z,16.80
2023-05-03T16:59:24.835Z,17.30
2023-05-03T17:07:47.778Z,13.90
2023-05-03T17:16:15.787Z,40.30
2023-05-03T17:24:38.868Z,17.90
2023-05-03T17:33:01.893Z,29.20
2023-05-03T17:41:24.867Z,26.20
2023-05-03T17:49:47.808Z,20.20
2023-05-03T17:58:10.937Z,14.60
2023-05-03T18:06:34.006Z,64.90
2023-05-03T18:14:59.967Z,40.70
2023-05-03T18:23:22.970Z,31.60
2023-05-03T18:31:46.125Z,40.90
2023-05-03T18:40:09.309Z,39.80
2023-05-03T18:56:55.596Z,16.90
2023-05-03T19:05:18.732Z,8.10
2023-05-03T19:13:45.049Z,6.10
2023-05-03T19:22:08.154Z,5.10
2023-05-03T19:30:31.097Z,26.50
2023-05-03T19:38:55.647Z,31.10
2023-05-03T19:47:19.081Z,28.10
2023-05-03T19:55:42.108Z,29.60
2023-05-03T20:04:05.166Z,33.60
2023-05-03T20:12:29.518Z,29.50
2023-05-03T20:20:52.502Z,27.30
2023-05-03T20:29:15.981Z,23.40
2023-05-03T20:37:39.756Z,19.20
2023-05-03T20:46:02.892Z,12.50
2023-05-03T20:54:25.878Z,9.60
2023-05-03T21:02:54.493Z,11.50
2023-05-03T21:11:19.263Z,15.10
2023-05-03T21:19:42.248Z,18.30
2023-05-03T21:28:05.157Z,18.00
2023-05-03T21:36:28.221Z,10.60
2023-05-03T21:44:51.529Z,11.00
2023-05-03T21:53:15.744Z,11.70
2023-05-03T22:01:38.764Z,9.90
2023-05-03T22:10:02.083Z,11.70
2023-05-03T22:18:28.333Z,18.30
2023-05-03T22:26:51.314Z,12.90
2023-05-03T22:35:15.471Z,12.50
2023-05-03T22:43:38.617Z,11.80
2023-05-03T22:52:04.248Z,10.20
2023-05-03T23:00:27.394Z,13.60
2023-05-03T23:08:50.504Z,15.70
2023-05-03T23:17:14.006Z,17.50
2023-05-03T23:25:36.920Z,15.70
2023-05-03T23:34:00.032Z,11.80
2023-05-03T23:42:23.116Z,11.50
2023-05-03T23:50:46.011Z,13.80
2023-05-03T23:59:09.157Z,16.50
